Time;durP1;ratioP1;P1;durP2;ratioP2;P2;SDS_P1;SDS_P2;PMS_P1;PMS_P2;Temp;Humidity;BMP_temperature;BMP_pressure;BME280_temperature;BME280_humidity;BME280_pressure;Samples;Min_cycle;Max_cycle;Signal;HPM_P1;HPM_P2
2023/10/28 00:01:52;;;;;;;18.38;17.52;;;;;;;-141.02;93.17;39995.91;5135972;27;20212;-61
2023/10/28 00:04:19;;;;;;;18.60;17.70;;;;;;;-141.02;94.23;39953.72;5136002;27;20196;-62
2023/10/28 00:06:46;;;;;;;18.75;17.85;;;;;;;-141.02;93.62;39951.78;5136017;27;20196;-62
2023/10/28 00:09:13;;;;;;;18.50;17.60;;;;;;;-141.02;93.82;39965.22;5135059;27;20197;-61
2023/10/28 00:11:40;;;;;;;80.68;72.13;;;;;;;-141.02;93.94;39992.06;5135900;27;20252;-62
2023/10/28 00:14:08;;;;;;;17.95;17.15;;;;;;;-141.02;94.13;39961.38;5135558;27;20193;-62
2023/10/28 00:16:36;;;;;;;17.27;16.48;;;;;;;-141.02;95.04;39984.41;5135454;27;20268;-61
2023/10/28 00:19:07;;;;;;;17.90;17.10;;;;;;;-141.02;95.04;39961.38;5135734;27;20689;-62
2023/10/28 00:21:46;;;;;;;18.15;17.35;;;;;;;-141.02;95.44;39976.72;5135353;27;20184;-61
2023/10/28 00:24:18;;;;;;;18.05;17.25;;;;;;;-141.02;95.67;39992.06;5135642;27;20196;-62
2023/10/28 00:26:47;;;;;;;17.15;16.35;;;;;;;-141.02;96.94;39972.88;5135229;27;20204;-62
2023/10/28 00:29:14;;;;;;;18.65;17.75;;;;;;;-141.02;99.94;39999.75;5135469;27;20611;-62
2023/10/28 00:31:41;;;;;;;18.00;17.20;;;;;;;-141.02;100.00;40003.59;5135760;27;20597;-62
2023/10/28 00:34:09;;;;;;;17.33;16.58;;;;;;;-141.02;100.00;39999.75;5135063;27;20221;-62
2023/10/28 00:36:37;;;;;;;17.17;16.48;;;;;;;-141.02;100.00;40028.50;5135220;27;20773;-62
2023/10/28 00:39:06;;;;;;;16.88;16.17;;;;;;;-141.02;100.00;39999.75;5135274;27;20572;-62
2023/10/28 00:41:35;;;;;;;16.60;15.90;;;;;;;-141.02;100.00;40003.59;5134956;27;20754;-62
2023/10/28 00:44:06;;;;;;;15.65;15.05;;;;;;;-141.02;100.00;40007.41;5135339;27;20196;-61
2023/10/28 00:46:33;;;;;;;15.80;15.20;;;;;;;-141.02;100.00;39992.06;5135243;27;20184;-62
2023/10/28 00:49:00;;;;;;;16.48;15.77;;;;;;;-141.02;100.00;39965.22;5135144;27;20193;-62
2023/10/28 00:51:29;;;;;;;16.90;16.20;;;;;;;-141.02;100.00;39838.63;5135136;27;20235;-62
2023/10/28 00:53:57;;;;;;;16.70;16.00;;;;;;;-141.02;100.00;40003.59;5135310;27;20196;-62
2023/10/28 00:56:24;;;;;;;16.75;16.05;;;;;;;-141.02;100.00;39965.22;5134647;27;20224;-62
2023/10/28 00:59:00;;;;;;;17.20;16.50;;;;;;;-141.02;100.00;39972.88;5134978;27;20192;-62
2023/10/28 01:01:29;;;;;;;17.55;16.85;;;;;;;-141.02;100.00;39980.56;5134952;27;20236;-62
2023/10/28 01:03:57;;;;;;;17.50;16.80;;;;;;;-141.02;100.00;39965.22;5134559;27;20272;-62
2023/10/28 01:06:24;;;;;;;17.92;17.13;;;;;;;-141.02;100.00;39967.13;5134780;27;20192;-62
2023/10/28 01:08:52;;;;;;;18.05;17.25;;;;;;;-141.02;100.00;39999.75;5134477;27;20227;-62
2023/10/28 01:11:19;;;;;;;16.40;15.70;;;;;;;-141.02;100.00;40011.25;5135208;27;20292;-62
2023/10/28 01:13:46;;;;;;;16.60;15.90;;;;;;;-141.02;100.00;39974.81;5134991;27;20313;-62
2023/10/28 01:16:13;;;;;;;16.23;15.63;;;;;;;-141.02;100.00;39953.72;5134239;27;20230;-62
2023/10/28 01:18:41;;;;;;;15.10;14.60;;;;;;;-141.02;100.00;39873.16;5134307;27;20287;-62
2023/10/28 01:21:13;;;;;;;13.40;13.00;;;;;;;-141.02;100.00;39800.25;5134561;27;20216;-62
2023/10/28 01:23:40;;;;;;;14.05;13.55;;;;;;;-141.02;100.00;39760.00;5134427;27;20193;-61
2023/10/28 01:26:13;;;;;;;13.50;13.10;;;;;;;-141.02;100.00;39733.13;5134126;27;20189;-61
2023/10/28 01:28:40;;;;;;;14.05;13.55;;;;;;;-141.02;100.00;39687.09;5134048;27;20283;-62
2023/10/28 01:31:08;;;;;;;12.50;12.10;;;;;;;-141.02;100.00;39616.13;5134417;27;20611;-62
2023/10/28 01:33:35;;;;;;;11.30;11.00;;;;;;;-141.02;100.00;39568.19;5134281;27;20192;-62
2023/10/28 01:36:02;;;;;;;11.63;11.32;;;;;;;-141.02;100.00;39558.59;5133017;27;20724;-62
2023/10/28 01:38:31;;;;;;;12.60;12.20;;;;;;;-141.02;100.00;39604.63;5133957;27;20330;-63
2023/10/28 01:40:58;;;;;;;13.48;13.07;;;;;;;-141.02;100.00;39619.97;5133931;27;20197;-62
2023/10/28 01:43:25;;;;;;;14.60;14.10;;;;;;;-141.02;100.00;39637.25;5133998;27;20646;-62
2023/10/28 01:45:52;;;;;;;14.50;14.00;;;;;;;-141.02;100.00;39650.66;5134011;27;20196;-62
2023/10/28 01:48:19;;;;;;;15.15;14.65;;;;;;;-141.02;100.00;39635.31;5133699;27;20189;-62
2023/10/28 01:50:47;;;;;;;14.35;13.85;;;;;;;-141.02;100.00;39621.91;5133617;27;20207;-62
2023/10/28 01:53:14;;;;;;;14.90;14.40;;;;;;;-141.02;100.00;39669.84;5133792;27;20200;-62
2023/10/28 01:55:47;;;;;;;14.65;14.15;;;;;;;-141.02;100.00;39681.34;5133555;27;20223;-62
2023/10/28 01:58:14;;;;;;;14.02;13.52;;;;;;;-141.02;100.00;39633.41;5133822;27;20219;-62
2023/10/28 02:00:41;;;;;;;12.95;12.55;;;;;;;-141.02;100.00;39595.03;5133897;27;20188;-62
2023/10/28 02:03:20;;;;;;;13.30;12.90;;;;;;;-141.02;100.00;39556.69;5133413;27;20228;-62
2023/10/28 02:05:48;;;;;;;13.05;12.65;;;;;;;-141.02;100.00;39535.59;5133461;27;20658;-61
2023/10/28 02:08:30;;;;;;;12.57;12.18;;;;;;;-141.02;100.00;39512.56;5133634;27;20612;-62
2023/10/28 02:10:59;;;;;;;13.02;12.63;;;;;;;-141.02;100.00;39510.66;5134579;27;20653;-62
2023/10/28 02:13:26;;;;;;;12.35;11.95;;;;;;;-141.02;100.00;39182.72;5133625;27;20674;-62
2023/10/28 02:15:53;;;;;;;12.60;12.20;;;;;;;-141.02;100.00;39435.88;5133184;27;20260;-62
2023/10/28 02:18:22;;;;;;;12.65;12.25;;;;;;;-141.02;100.00;39405.19;5133159;27;20203;-62
2023/10/28 02:20:52;;;;;;;12.27;11.88;;;;;;;-141.02;100.00;39405.19;5133846;27;20208;-62
2023/10/28 02:23:19;;;;;;;12.52;12.13;;;;;;;-141.02;100.00;39412.84;5133398;27;20215;-62
2023/10/28 02:25:51;;;;;;;12.60;12.20;;;;;;;-141.02;100.00;39424.34;5133160;27;20753;-62
2023/10/28 02:28:21;;;;;;;12.57;12.18;;;;;;;-141.02;100.00;39456.97;5133451;27;20277;-62
2023/10/28 02:30:59;;;;;;;13.45;13.05;;;;;;;-141.02;100.00;39443.53;5132579;27;20196;-62
2023/10/28 02:33:26;;;;;;;13.82;13.43;;;;;;;-141.02;100.00;39466.53;5133357;27;20560;-62
2023/10/28 02:35:52;;;;;;;13.73;13.32;;;;;;;-141.02;100.00;39445.44;5132869;27;20232;-62
2023/10/28 02:38:20;;;;;;;13.20;12.80;;;;;;;-141.02;100.00;39443.53;5133267;28;20188;-62
2023/10/28 02:40:47;;;;;;;13.10;12.70;;;;;;;-141.02;100.00;39458.88;5132983;27;20192;-62
2023/10/28 02:43:15;;;;;;;13.40;13.00;;;;;;;-141.02;100.00;39221.06;5132922;28;20188;-62
2023/10/28 02:45:44;;;;;;;13.52;13.13;;;;;;;-141.02;100.00;39422.44;5133194;28;20199;-62
2023/10/28 02:48:11;;;;;;;12.93;12.52;;;;;;;-141.02;100.00;39432.03;5133131;28;20192;-62
2023/10/28 02:50:38;;;;;;;12.68;12.27;;;;;;;-141.02;100.00;39432.03;5132900;27;20207;-62
2023/10/28 02:53:07;;;;;;;12.73;12.32;;;;;;;-141.02;100.00;39416.69;5133116;28;20202;-62
2023/10/28 02:55:36;;;;;;;13.02;12.63;;;;;;;-141.02;100.00;39433.94;5133074;28;20666;-62
2023/10/28 02:58:04;;;;;;;12.90;12.50;;;;;;;-141.02;100.00;39439.69;5132989;28;20243;-62
2023/10/28 03:00:31;;;;;;;13.50;13.10;;;;;;;-141.02;100.00;39439.69;5133050;28;20196;-62
2023/10/28 03:02:59;;;;;;;14.13;13.63;;;;;;;-141.02;100.00;39443.53;5133008;28;20196;-62
2023/10/28 03:05:43;;;;;;;13.13;12.73;;;;;;;-141.02;100.00;39458.88;5133082;27;20199;-62
2023/10/28 03:08:10;;;;;;;12.43;12.02;;;;;;;-141.02;100.00;39432.03;5132650;28;20284;-62
2023/10/28 03:10:37;;;;;;;12.30;11.90;;;;;;;-141.02;100.00;39386.00;5132717;28;20196;-62
2023/10/28 03:13:04;;;;;;;12.50;12.10;;;;;;;-141.02;100.00;39368.75;5132962;27;20618;-62
2023/10/28 03:15:32;;;;;;;11.85;11.45;;;;;;;-141.02;100.00;39313.13;5132944;28;20280;-62
2023/10/28 03:18:01;;;;;;;11.98;11.57;;;;;;;-141.02;100.00;39286.28;5132569;28;20234;-62
2023/10/28 03:20:28;;;;;;;11.77;11.48;;;;;;;-141.02;100.00;39261.34;5133044;28;20200;-62
2023/10/28 03:23:05;;;;;;;11.77;11.48;;;;;;;-141.02;100.00;39244.09;5132578;28;20280;-62
2023/10/28 03:25:33;;;;;;;11.80;11.50;;;;;;;-141.02;100.00;39246.00;5132535;28;20196;-62
2023/10/28 03:28:00;;;;;;;11.90;11.55;;;;;;;-141.02;100.00;39249.84;5133079;28;20200;-62
2023/10/28 03:30:27;;;;;;;11.73;11.43;;;;;;;-141.02;100.00;39228.75;5132790;28;20200;-62
2023/10/28 03:32:54;;;;;;;12.05;11.68;;;;;;;-141.02;100.00;39217.25;5132445;28;20824;-62
2023/10/28 03:35:23;;;;;;;11.35;11.05;;;;;;;-141.02;100.00;39194.22;5132341;28;20311;-62
2023/10/28 03:37:50;;;;;;;10.68;10.38;;;;;;;-141.02;100.00;39176.97;5132369;28;20227;-62
2023/10/28 03:40:17;;;;;;;11.05;10.75;;;;;;;-141.02;100.00;39129.03;5132358;28;20650;-62
2023/10/28 03:42:44;;;;;;;12.20;11.80;;;;;;;-141.02;100.00;39157.78;5132700;27;20228;-62
2023/10/28 03:45:11;;;;;;;11.60;11.30;;;;;;;-141.02;100.00;39125.19;5136092;27;20657;-62
2023/10/28 03:47:38;;;;;;;12.38;11.98;;;;;;;-141.02;100.00;39111.78;5136012;27;20704;-62
2023/10/28 03:50:06;;;;;;;11.48;11.18;;;;;;;-141.02;100.00;39079.16;5136572;27;20188;-62
2023/10/28 03:52:34;;;;;;;11.60;11.30;;;;;;;-141.02;100.00;39100.25;5136005;27;20654;-62
2023/10/28 03:55:02;;;;;;;12.25;11.85;;;;;;;-141.02;100.00;39111.78;5136199;27;20279;-62
2023/10/28 03:57:28;;;;;;;12.52;12.13;;;;;;;-141.02;100.00;39109.84;5136035;27;20600;-62
2023/10/28 03:59:55;;;;;;;12.60;12.20;;;;;;;-141.02;100.00;39125.19;5136044;27;20706;-62
2023/10/28 04:02:23;;;;;;;12.10;11.70;;;;;;;-141.02;100.00;39113.69;5135791;27;20277;-62
2023/10/28 04:04:50;;;;;;;13.00;12.60;;;;;;;-141.02;100.00;39121.34;5136084;27;20197;-62
2023/10/28 04:07:17;;;;;;;13.15;12.75;;;;;;;-141.02;100.00;39152.03;5135982;27;20197;-62
2023/10/28 04:09:45;;;;;;;13.90;13.50;;;;;;;-141.02;100.00;39148.19;5135706;27;20662;-62
2023/10/28 04:12:12;;;;;;;14.10;13.70;;;;;;;-141.02;100.00;39180.81;5135887;27;20202;-62
2023/10/28 04:14:39;;;;;;;14.43;13.93;;;;;;;-141.02;100.00;39175.06;5135572;27;20235;-62
2023/10/28 04:17:24;;;;;;;14.63;14.13;;;;;;;-141.02;100.00;39198.06;5135799;27;20226;-62
2023/10/28 04:19:51;;;;;;;13.68;13.27;;;;;;;-141.02;100.00;39171.22;5135730;27;20188;-62
2023/10/28 04:22:18;;;;;;;13.38;12.98;;;;;;;-141.02;100.00;39198.06;5135646;27;20193;-62
2023/10/28 04:24:46;;;;;;;13.82;13.43;;;;;;;-141.02;100.00;39196.16;5135700;27;20235;-62
2023/10/28 04:27:13;;;;;;;13.02;12.63;;;;;;;-141.02;100.00;39198.06;5135321;27;20659;-62
2023/10/28 04:29:40;;;;;;;13.75;13.35;;;;;;;-141.02;100.00;39190.38;5135273;27;20283;-62
2023/10/28 04:32:08;;;;;;;13.60;13.20;;;;;;;-141.02;100.00;39190.38;5135479;27;20196;-62
2023/10/28 04:34:35;;;;;;;13.88;13.48;;;;;;;-141.02;100.00;39194.22;5134901;27;20231;-62
2023/10/28 04:37:02;;;;;;;14.50;14.00;;;;;;;-141.02;100.00;39199.97;5135638;27;20227;-62
2023/10/28 04:39:29;;;;;;;14.30;13.80;;;;;;;-141.02;100.00;39221.06;5135043;27;20246;-62
2023/10/28 04:41:57;;;;;;;14.65;14.15;;;;;;;-141.02;100.00;39213.41;5135045;27;20207;-62
2023/10/28 04:44:24;;;;;;;14.10;13.60;;;;;;;-141.02;100.00;39244.09;5134994;27;20239;-62
2023/10/28 04:46:51;;;;;;;13.90;13.50;;;;;;;-141.02;100.00;39244.09;5135192;27;20202;-62
2023/10/28 04:49:18;;;;;;;13.85;13.45;;;;;;;-141.02;100.00;39288.19;5135153;27;20193;-62
2023/10/28 04:51:45;;;;;;;13.57;13.18;;;;;;;-141.02;100.00;39357.22;5135177;27;20257;-62
2023/10/28 04:54:11;;;;;;;14.57;14.07;;;;;;;-141.02;100.00;39476.13;5134810;27;20231;-62
2023/10/28 04:56:38;;;;;;;13.60;13.20;;;;;;;-141.02;100.00;39539.44;5135088;27;20265;-62
2023/10/28 04:59:10;;;;;;;13.32;12.93;;;;;;;-141.02;100.00;39577.78;5135061;27;20275;-62
2023/10/28 05:01:36;;;;;;;13.75;13.25;;;;;;;-141.02;100.00;39671.75;5134724;27;20673;-62
2023/10/28 05:04:03;;;;;;;13.50;13.10;;;;;;;-141.02;100.00;39817.53;5134931;27;20272;-62
2023/10/28 05:06:31;;;;;;;14.25;13.75;;;;;;;-141.02;100.00;39944.13;5134655;27;20643;-62
2023/10/28 05:08:58;;;;;;;13.40;13.00;;;;;;;-141.02;100.00;39984.41;5134901;27;20558;-62
2023/10/28 05:11:25;;;;;;;13.63;13.18;;;;;;;-141.02;100.00;40009.34;5134926;27;20241;-62
2023/10/28 05:13:52;;;;;;;13.98;13.48;;;;;;;-141.02;100.00;40072.63;5134730;27;20192;-62
2023/10/28 05:16:23;;;;;;;13.63;13.23;;;;;;;-141.02;100.00;40157.03;5134666;27;20200;-63
2023/10/28 05:18:50;;;;;;;13.88;13.40;;;;;;;-141.02;100.00;40229.94;5134672;27;20272;-62
2023/10/28 05:21:17;;;;;;;13.32;12.93;;;;;;;-141.02;100.00;40226.09;5134294;27;20688;-62
2023/10/28 05:23:44;;;;;;;13.57;13.18;;;;;;;-141.02;100.00;40237.59;5134623;27;20272;-63
2023/10/28 05:26:11;;;;;;;14.88;14.38;;;;;;;-141.02;100.00;40308.56;5134471;27;20676;-62
2023/10/28 05:28:46;;;;;;;13.80;13.40;;;;;;;-141.02;100.00;40300.91;5134446;27;20192;-63
2023/10/28 05:31:13;;;;;;;13.48;13.07;;;;;;;-141.02;100.00;40379.56;5134120;27;20188;-62
2023/10/28 05:33:41;;;;;;;14.90;14.40;;;;;;;-141.02;100.00;40412.16;5134347;27;20257;-62
2023/10/28 05:36:08;;;;;;;14.80;14.30;;;;;;;-141.02;100.00;40448.63;5133990;27;20228;-62
2023/10/28 05:38:35;;;;;;;15.27;14.77;;;;;;;-141.02;100.00;40488.91;5134107;27;20230;-66
2023/10/28 05:41:02;;;;;;;15.40;14.90;;;;;;;-141.02;100.00;40552.22;5134357;27;20196;-62
2023/10/28 05:43:30;;;;;;;14.98;14.40;;;;;;;-141.02;100.00;40602.09;5133893;27;20203;-62
2023/10/28 05:45:58;;;;;;;16.25;15.65;;;;;;;-141.02;100.00;40571.41;5133799;27;20200;-62
2023/10/28 05:48:25;;;;;;;16.00;15.40;;;;;;;-141.02;100.00;40602.09;5134354;27;20200;-65
2023/10/28 05:50:55;;;;;;;16.30;15.65;;;;;;;-141.02;100.00;40617.44;5134195;27;20195;-62
2023/10/28 05:53:23;;;;;;;16.92;16.23;;;;;;;-141.02;100.00;40625.13;5133981;27;20280;-62
2023/10/28 05:55:49;;;;;;;15.50;14.90;;;;;;;-141.02;100.00;40650.06;5133979;27;20200;-62
2023/10/28 05:58:17;;;;;;;16.50;15.80;;;;;;;-141.02;100.00;40640.47;5134134;27;20292;-62
2023/10/28 06:00:44;;;;;;;15.85;15.25;;;;;;;-141.02;100.00;40615.53;5133907;27;20204;-62
2023/10/28 06:03:11;;;;;;;16.40;15.70;;;;;;;-141.02;100.00;40648.13;5133540;27;20192;-63
2023/10/28 06:05:38;;;;;;;16.35;15.65;;;;;;;-141.02;100.00;40671.16;5132894;27;20196;-62
2023/10/28 06:08:08;;;;;;;15.65;15.05;;;;;;;-141.02;100.00;40671.16;5133369;27;20658;-66
2023/10/28 06:10:35;;;;;;;16.85;16.15;;;;;;;-141.02;100.00;40696.09;5133682;27;20678;-62
2023/10/28 06:13:02;;;;;;;17.33;16.52;;;;;;;-141.02;100.00;40744.06;5133892;27;20196;-62
2023/10/28 06:15:29;;;;;;;17.55;16.75;;;;;;;-141.02;97.37;40769.00;5133292;27;20658;-66
2023/10/28 06:17:57;;;;;;;17.17;16.38;;;;;;;-141.02;97.36;40809.28;5133226;27;20224;-62
2023/10/28 06:20:24;;;;;;;17.50;16.70;;;;;;;-141.02;95.88;40809.28;5133453;27;20196;-62
2023/10/28 06:22:52;;;;;;;18.42;17.52;;;;;;;-141.02;92.05;40822.72;5133417;27;20228;-62
2023/10/28 06:25:20;;;;;;;19.75;18.75;;;;;;;-141.02;93.73;40824.63;5133431;27;20192;-62
2023/10/28 06:27:47;;;;;;;19.23;18.23;;;;;;;-141.02;91.10;40874.53;5133099;27;20666;-62
2023/10/28 06:30:14;;;;;;;19.25;18.25;;;;;;;-141.02;89.76;40889.88;5133480;27;20189;-62
2023/10/28 06:32:41;;;;;;;19.55;18.58;;;;;;;-141.02;86.56;40889.88;5133411;27;20189;-62
2023/10/28 06:35:09;;;;;;;19.35;18.45;;;;;;;-141.02;86.87;40897.56;5132840;27;20230;-62
2023/10/28 06:37:39;;;;;;;19.50;18.50;;;;;;;-141.02;87.33;40943.59;5132945;27;20227;-62
2023/10/28 06:40:09;;;;;;;18.58;17.67;;;;;;;-141.02;85.82;40966.63;5133069;27;20639;-62
2023/10/28 06:42:38;;;;;;;19.15;18.25;;;;;;;-141.02;87.38;40978.13;5133104;28;20666;-62
2023/10/28 06:45:06;;;;;;;18.98;18.08;;;;;;;-141.02;87.04;40962.78;5133265;27;20200;-62
2023/10/28 06:47:33;;;;;;;18.75;17.85;;;;;;;-141.02;86.51;40981.97;5132935;28;20207;-62
2023/10/28 06:50:04;;;;;;;19.20;18.30;;;;;;;-141.02;86.76;40980.06;5133248;28;20204;-62
2023/10/28 06:52:32;;;;;;;19.27;18.38;;;;;;;-141.02;86.60;40966.63;5132979;28;20619;-62
2023/10/28 06:55:00;;;;;;;20.00;19.02;;;;;;;-141.02;83.58;40981.97;5133251;28;20220;-62
2023/10/28 06:57:30;;;;;;;20.20;19.20;;;;;;;-141.02;83.44;40932.09;5133107;28;20278;-62
2023/10/28 06:59:58;;;;;;;19.98;18.98;;;;;;;-141.02;83.40;40901.38;5133205;27;20257;-62
2023/10/28 07:02:25;;;;;;;19.58;18.58;;;;;;;-141.02;83.94;40937.84;5133187;28;20193;-62
2023/10/28 07:04:54;;;;;;;19.42;18.52;;;;;;;-141.02;83.36;40955.09;5133019;28;20192;-62
2023/10/28 07:07:21;;;;;;;19.50;18.60;;;;;;;-141.02;83.73;40939.75;5133087;28;20336;-62
2023/10/28 07:09:48;;;;;;;19.75;18.80;;;;;;;-141.02;81.76;41016.50;5133072;28;20275;-62
2023/10/28 07:12:15;;;;;;;19.35;18.45;;;;;;;-141.02;83.06;41062.56;5132988;28;20231;-62
2023/10/28 07:14:42;;;;;;;19.90;18.90;;;;;;;-141.02;80.20;41064.47;5133034;28;20203;-62
2023/10/28 07:17:11;;;;;;;19.27;18.35;;;;;;;-141.02;81.81;41143.16;5133646;27;20192;-62
2023/10/28 07:19:38;;;;;;;19.73;18.73;;;;;;;-141.02;81.12;41185.34;5136722;27;20189;-62
2023/10/28 07:22:05;;;;;;;20.60;19.60;;;;;;;-141.02;78.28;41177.69;5137294;27;20196;-62
2023/10/28 07:24:34;;;;;;;20.75;19.65;;;;;;;-141.02;76.17;41265.94;5136822;27;20189;-62
2023/10/28 07:27:04;;;;;;;20.15;19.15;;;;;;;-141.02;76.94;41327.34;5136618;27;20192;-62
2023/10/28 07:29:31;;;;;;;19.60;18.60;;;;;;;-141.02;76.89;41342.69;5136809;27;20620;-62
2023/10/28 07:31:58;;;;;;;20.73;19.73;;;;;;;-141.02;77.76;41331.19;5136518;27;20200;-62
2023/10/28 07:34:27;;;;;;;20.00;19.00;;;;;;;-141.02;77.38;41331.19;5136541;27;20228;-62
2023/10/28 07:36:54;;;;;;;19.13;18.23;;;;;;;-141.02;77.79;41392.59;5136418;27;20271;-62
2023/10/28 07:39:21;;;;;;;19.30;18.30;;;;;;;-141.02;77.09;41427.13;5136486;27;20228;-62
2023/10/28 07:41:48;;;;;;;20.27;19.27;;;;;;;-141.02;73.81;41450.16;5136533;27;20639;-63
2023/10/28 07:44:15;;;;;;;20.15;19.15;;;;;;;-141.02;76.45;41480.88;5136274;27;20283;-62
2023/10/28 07:46:42;;;;;;;20.58;19.58;;;;;;;-141.02;72.81;41546.13;5136158;27;20189;-62
2023/10/28 07:49:10;;;;;;;20.52;19.52;;;;;;;-141.02;74.59;41515.41;5136441;27;20282;-62
2023/10/28 07:51:39;;;;;;;20.77;19.77;;;;;;;-141.02;71.12;41592.16;5136614;27;20196;-62
2023/10/28 07:54:06;;;;;;;21.33;20.23;;;;;;;-141.02;71.83;41607.53;5136368;27;20196;-62
2023/10/28 07:56:33;;;;;;;19.75;18.75;;;;;;;-141.02;70.60;41676.59;5136358;27;20193;-62
2023/10/28 07:59:01;;;;;;;20.80;19.80;;;;;;;-141.02;67.89;41766.81;5136064;27;20318;-62
2023/10/28 08:01:29;;;;;;;20.63;19.63;;;;;;;-141.02;67.63;41837.81;5135981;27;20287;-62
2023/10/28 08:04:00;;;;;;;20.90;19.90;;;;;;;-141.02;68.19;41887.72;5135808;27;20188;-62
2023/10/28 08:06:27;;;;;;;20.88;19.88;;;;;;;-141.02;67.58;41849.34;5136128;27;20624;-62
2023/10/28 08:08:56;;;;;;;21.35;20.25;;;;;;;-141.02;66.57;41810.94;5136026;27;20196;-62
2023/10/28 08:11:24;;;;;;;20.90;19.85;;;;;;;-141.02;66.83;41858.94;5135785;27;20283;-62
2023/10/28 08:13:52;;;;;;;21.15;20.05;;;;;;;-141.02;66.45;41945.28;5136052;27;20200;-62
2023/10/28 08:16:20;;;;;;;21.20;20.10;;;;;;;-141.02;65.16;41999.03;5135920;27;20615;-62
2023/10/28 08:18:48;;;;;;;20.85;19.75;;;;;;;-141.02;64.52;41991.34;5135735;27;20296;-62
2023/10/28 08:21:16;;;;;;;20.58;19.58;;;;;;;-141.02;63.38;41981.75;5135555;27;20670;-62
2023/10/28 08:23:43;;;;;;;21.30;20.20;;;;;;;-141.02;63.66;42129.53;5135540;27;20228;-62
2023/10/28 08:26:15;;;;;;;21.20;20.10;;;;;;;-141.02;63.52;42171.78;5135428;27;20193;-62
2023/10/28 08:28:43;;;;;;;21.77;20.67;;;;;;;-141.02;62.19;42302.28;5135014;27;20204;-62
2023/10/28 08:31:10;;;;;;;22.60;21.40;;;;;;;-141.02;60.50;42340.69;5135617;27;20192;-62
2023/10/28 08:33:38;;;;;;;23.33;22.13;;;;;;;-141.02;62.62;42415.53;5135497;27;20670;-62
2023/10/28 08:36:51;;;;;;;22.45;21.25;;;;;;;-141.02;64.64;42096.91;5135422;27;20232;-62
2023/10/28 08:39:19;;;;;;;21.98;20.77;;;;;;;-141.02;65.12;42294.63;5135145;27;20235;-62
2023/10/28 08:41:51;;;;;;;22.05;20.85;;;;;;;-141.02;63.50;42455.84;5135295;27;20663;-62
2023/10/28 08:44:20;;;;;;;22.38;21.17;;;;;;;-141.02;61.36;42375.22;5135424;27;20220;-62
2023/10/28 08:46:50;;;;;;;21.95;20.75;;;;;;;-141.02;60.31;42599.81;5135399;27;20288;-62
2023/10/28 08:49:19;;;;;;;21.90;20.70;;;;;;;-141.02;60.17;42636.28;5135294;27;20192;-62
2023/10/28 08:51:49;;;;;;;22.23;21.02;;;;;;;-141.02;60.72;42761.06;5135275;27;20568;-62
2023/10/28 08:54:17;;;;;;;22.27;21.08;;;;;;;-141.02;62.06;42225.50;5135317;27;20184;-62
2023/10/28 08:56:47;;;;;;;21.08;19.98;;;;;;;-141.02;62.98;42187.13;5135073;27;20214;-61
2023/10/28 08:59:16;;;;;;;22.63;21.42;;;;;;;-141.02;64.88;42279.25;5135080;27;20228;-62
2023/10/28 09:01:44;;;;;;;21.73;20.52;;;;;;;-141.02;67.28;42144.91;5135009;27;20279;-61
2023/10/28 09:04:11;;;;;;;21.70;20.50;;;;;;;-141.02;66.23;42137.22;5134677;27;20662;-62
2023/10/28 09:06:39;;;;;;;21.70;20.58;;;;;;;-141.02;67.72;42110.34;5135836;27;20215;-62
2023/10/28 09:09:12;;;;;;;21.25;20.15;;;;;;;-141.02;68.01;42321.47;5134535;27;20203;-62
2023/10/28 09:11:40;;;;;;;22.05;20.85;;;;;;;-141.02;65.77;42327.25;5134817;27;20195;-62
2023/10/28 09:14:07;;;;;;;21.70;20.50;;;;;;;-141.02;66.25;42428.97;5134742;27;20283;-62
2023/10/28 09:16:36;;;;;;;22.10;20.90;;;;;;;-141.02;65.75;42505.75;5134479;27;20192;-61
2023/10/28 09:19:04;;;;;;;21.63;20.42;;;;;;;-141.02;64.23;42488.47;5134290;27;20603;-62
2023/10/28 09:21:31;;;;;;;21.60;20.40;;;;;;;-141.02;62.35;42559.50;5134350;27;20193;-61
2023/10/28 09:24:01;;;;;;;21.65;20.45;;;;;;;-141.02;62.03;42674.69;5134267;27;20196;-62
2023/10/28 09:26:28;;;;;;;21.70;20.50;;;;;;;-141.02;63.19;42555.66;5134537;27;20381;-61
2023/10/28 09:28:58;;;;;;;23.50;22.20;;;;;;;-141.02;62.78;42611.34;5134212;27;20200;-62
2023/10/28 09:31:25;;;;;;;21.98;20.77;;;;;;;-141.02;62.91;42574.88;5134409;27;20197;-62
2023/10/28 09:33:54;;;;;;;21.65;20.45;;;;;;;-141.02;63.43;42605.56;5134127;27;20200;-61
2023/10/28 09:36:22;;;;;;;22.90;21.70;;;;;;;-141.02;63.00;42640.13;5093073;28;20247;-62
2023/10/28 09:38:50;;;;;;;21.10;19.90;;;;;;;-141.02;61.78;42674.69;5093071;28;20307;-61
2023/10/28 09:41:19;;;;;;;21.38;20.17;;;;;;;-141.02;60.07;42645.88;5092077;28;20284;-62
2023/10/28 09:43:46;;;;;;;21.73;20.48;;;;;;;-141.02;59.45;42812.91;5093262;28;20198;-61
2023/10/28 09:46:19;;;;;;;21.58;20.27;;;;;;;-141.02;58.26;43066.31;5092977;28;20289;-62
2023/10/28 09:48:48;;;;;;;22.42;21.13;;;;;;;-141.02;57.14;43054.78;5093295;28;20302;-61
2023/10/28 09:51:22;;;;;;;22.67;21.38;;;;;;;-141.02;56.76;43014.47;5092893;28;20197;-62
2023/10/28 09:53:59;;;;;;;22.85;21.55;;;;;;;-141.02;56.09;43006.81;5092827;28;20204;-62
2023/10/28 09:56:31;;;;;;;21.90;20.63;;;;;;;-141.02;57.66;42991.44;5092846;28;20685;-61
2023/10/28 09:59:03;;;;;;;22.70;21.40;;;;;;;-141.02;56.97;42899.28;5092988;28;20213;-62
2023/10/28 10:01:36;;;;;;;22.65;21.35;;;;;;;-141.02;57.21;42329.16;5093044;28;20217;-61
2023/10/28 10:04:11;;;;;;;22.88;21.58;;;;;;;-141.02;58.20;42949.19;5092975;28;20633;-61
2023/10/28 10:06:40;;;;;;;22.17;20.98;;;;;;;-141.02;56.44;42799.47;5093021;28;20264;-62
2023/10/28 10:09:12;;;;;;;22.05;20.80;;;;;;;-141.02;56.95;42810.97;5093097;28;20198;-62
2023/10/28 10:11:42;;;;;;;23.20;21.90;;;;;;;-141.02;56.21;42816.75;5092629;28;20277;-61
2023/10/28 10:14:11;;;;;;;22.38;21.08;;;;;;;-141.02;56.26;42713.06;5092741;28;20274;-61
2023/10/28 10:16:46;;;;;;;23.00;21.70;;;;;;;-141.02;55.52;42594.06;5092509;28;20285;-62
2023/10/28 10:19:22;;;;;;;23.75;22.45;;;;;;;-141.02;55.81;43039.44;5092690;28;20217;-62
2023/10/28 10:21:52;;;;;;;22.55;21.25;;;;;;;-141.02;56.22;42402.09;5092411;28;20197;-62
2023/10/28 10:24:34;;;;;;;22.58;21.27;;;;;;;-141.02;56.22;42459.69;5092663;28;20227;-62
2023/10/28 10:27:02;;;;;;;22.90;21.60;;;;;;;-141.02;57.52;42400.19;5092314;28;20292;-69
2023/10/28 10:29:41;;;;;;;22.02;20.73;;;;;;;-141.02;57.94;42601.72;5092578;28;20221;-62
2023/10/28 10:32:16;;;;;;;23.80;22.40;;;;;;;-141.02;57.95;42467.38;5092273;28;20280;-62
2023/10/28 10:34:45;;;;;;;22.02;20.73;;;;;;;-141.02;56.62;42450.09;5105552;27;20224;-62
2023/10/28 10:37:23;;;;;;;21.30;20.10;;;;;;;-141.02;56.59;42530.72;5133036;27;20568;-62
2023/10/28 10:39:51;;;;;;;21.60;20.40;;;;;;;-141.02;56.65;42467.38;5133650;27;20220;-62
2023/10/28 10:42:18;;;;;;;21.02;19.90;;;;;;;-141.02;57.49;42421.28;5132978;27;20287;-62
2023/10/28 10:44:47;;;;;;;20.67;19.58;;;;;;;-141.02;58.65;42402.09;5133213;28;20623;-62
2023/10/28 10:47:17;;;;;;;21.15;19.95;;;;;;;-141.02;59.17;42375.22;5133256;28;20203;-62
2023/10/28 10:49:44;;;;;;;20.75;19.65;;;;;;;-141.02;59.26;42417.47;5133281;27;20184;-62
2023/10/28 10:52:11;;;;;;;21.05;19.95;;;;;;;-141.02;59.12;42405.94;5134186;27;20193;-62
2023/10/28 10:54:40;;;;;;;20.83;19.73;;;;;;;-141.02;58.18;42288.84;5137303;27;20672;-62
2023/10/28 10:57:08;;;;;;;20.95;19.85;;;;;;;-141.02;59.14;42267.75;5137195;27;20680;-62
2023/10/28 10:59:38;;;;;;;21.70;20.50;;;;;;;-141.02;58.93;42144.91;5137290;27;20224;-62
2023/10/28 11:02:06;;;;;;;20.58;19.48;;;;;;;-141.02;59.33;42164.09;5136986;27;20210;-62
2023/10/28 11:04:36;;;;;;;21.10;19.90;;;;;;;-141.02;58.75;42214.00;5137541;27;20192;-62